Monday, October 23, 2017, 1:12 PM EDT
Back to Local

KHLG, Wheeling Ohio County Airport

Location: Wheeling, WV, United States Lat: 40.167
Local Time: 1:12 PM EDT (17:12 GMT) Lon: -80.65
Time Zone: US/Eastern Elev: 1194 ft

Show me the last for .
Show Coded

Time T Td Feel RH Dir Speed Gust Alt SLP Vis Weather Sky Remarks
2017-10-23 12:53 63 58 - 83 130° 13 - 29.91 29.91 8 -RA FEW055 BKN070 OVC110 1-hr Precip Total: 0.02"
2017-10-23 11:53 63 57 - 80 120° 14 21 29.95 29.94 10 OVC100 1-hr Precip Total: 0.01"
2017-10-23 10:53 64 55 - 72 140° 16 25 29.99 29.98 7 -RA FEW037 BKN044 OVC095 1-hr Precip Total: Trace
6-hr Precip Total (11am): 0.00"
2017-10-23 09:53 63 53 - 70 120° 13 - 30.00 30.00 10 CLR None
2017-10-23 08:53 61 52 - 72 120° 10 - 30.03 30.02 10 CLR None
2017-10-23 07:53 60 51 - 72 130° 10 - 30.04 30.04 10 FEW065 BKN080 OVC090 1-hr Precip Total: Trace
6-hr Precip Total (8am): 0.00"
6-hr Min Temp (8am): 57.0°F
6-hr Max Temp (8am): 62.1°F
2017-10-23 06:53 60 49 - 66 120° 10 - 30.06 30.06 10 OVC070 None
2017-10-23 05:53 59 48 - 66 120° 7 - 30.07 30.06 10 CLR None
2017-10-23 04:53 58 47 - 66 110° 9 - 30.09 30.08 10 CLR None
2017-10-23 03:53 59 47 - 64 130° 10 - 30.10 30.09 10 CLR None
2017-10-23 02:53 60 46 - 59 130° 7 - 30.13 30.11 10 CLR None
2017-10-23 01:53 60 46 - 59 130° 8 - 30.13 30.12 10 CLR 6-hr Min Temp (2am): 60.1°F
6-hr Max Temp (2am): 68.0°F
2017-10-23 00:53 61 45 - 55 140° 9 - 30.15 30.14 10 CLR 24-hr Min Temp (1am): 52.0°F
24-hr Max Temp (1am): 75.9°F
2017-10-22 23:53 63 45 - 51 150° 8 - 30.16 30.15 10 CLR None
2017-10-22 22:53 65 45 - 48 150° 9 - 30.16 30.16 10 CLR None
2017-10-22 21:53 63 45 - 51 120° 6 - 30.16 30.16 10 CLR None
2017-10-22 20:53 66 45 - 46 110° 6 - 30.17 30.16 10 CLR None
2017-10-22 19:53 68 45 - 43 130° 5 - 30.18 30.17 10 CLR 6-hr Min Temp (8pm): 66.9°F
6-hr Max Temp (8pm): 75.9°F
2017-10-22 18:53 70 46 - 42 150° 5 - 30.18 30.17 10 CLR None
2017-10-22 17:53 72 46 - 39 130° 5 - 30.17 30.16 10 CLR None
2017-10-22 16:53 74 46 - 37 160° 7 - 30.18 30.17 10 CLR None
2017-10-22 15:53 75 47 - 36 190° 6 - 30.20 30.19 10 CLR None
2017-10-22 14:53 76 48 - 37 Variable 6 - 30.21 30.21 10 CLR None
2017-10-22 13:53 74 50 76 42 240° 6 - 30.24 30.24 10 CLR 6-hr Min Temp (2pm): 55.9°F
6-hr Max Temp (2pm): 73.9°F

Support USWX by starting your Amazon purchase here.